createdAt,value
2023-04-04T00:00:36.666Z,0.70
2023-04-04T00:03:58.548Z,0.60
2023-04-04T00:07:21.653Z,0.60
2023-04-04T00:10:43.446Z,0.60
2023-04-04T00:14:05.064Z,0.50
2023-04-04T00:17:27.620Z,0.50
2023-04-04T00:20:49.218Z,0.50
2023-04-04T00:24:12.160Z,0.40
2023-04-04T00:27:33.792Z,0.40
2023-04-04T00:30:55.395Z,0.30
2023-04-04T00:34:17.034Z,0.20
2023-04-04T00:37:38.687Z,0.20
2023-04-04T00:41:01.778Z,0.10
2023-04-04T00:44:23.430Z,0.00
2023-04-04T00:47:45.365Z,0.00
2023-04-04T00:51:07.063Z,-0.10
2023-04-04T00:54:33.563Z,-0.10
2023-04-04T00:57:58.254Z,-0.10
2023-04-04T01:01:19.895Z,-0.20
2023-04-04T01:04:41.739Z,-0.20
2023-04-04T01:08:03.504Z,-0.20
2023-04-04T01:11:25.790Z,-0.20
2023-04-04T01:14:48.717Z,-0.20
2023-04-04T01:18:11.761Z,-0.20
2023-04-04T01:21:34.209Z,-0.30
2023-04-04T01:24:56.918Z,-0.30
2023-04-04T01:28:19.894Z,-0.20
2023-04-04T01:31:42.020Z,-0.20
2023-04-04T01:35:08.628Z,-0.30
2023-04-04T01:38:31.835Z,-0.20
2023-04-04T01:41:54.181Z,-0.30
2023-04-04T01:45:17.328Z,-0.30
2023-04-04T01:48:39.014Z,-0.40
2023-04-04T01:52:00.951Z,-0.40
2023-04-04T01:55:22.576Z,-0.40
2023-04-04T01:58:44.319Z,-0.40
2023-04-04T02:02:07.310Z,-0.40
2023-04-04T02:05:28.935Z,-0.40
2023-04-04T02:08:50.592Z,-0.40
2023-04-04T02:12:12.173Z,-0.50
2023-04-04T02:15:33.864Z,-0.60
2023-04-04T02:18:56.871Z,-0.60
2023-04-04T02:22:18.471Z,-0.60
2023-04-04T02:25:40.056Z,-0.50
2023-04-04T02:29:01.635Z,-0.50
2023-04-04T02:32:23.566Z,-0.50
2023-04-04T02:35:46.641Z,-0.50
2023-04-04T02:39:08.286Z,-0.60
2023-04-04T02:42:29.883Z,-0.70
2023-04-04T02:45:51.535Z,-0.70
2023-04-04T02:49:13.122Z,-0.80
2023-04-04T02:52:36.044Z,-0.80
2023-04-04T02:55:57.679Z,-1.00
2023-04-04T02:59:19.314Z,-1.00
2023-04-04T03:02:41.063Z,-1.10
2023-04-04T03:06:02.808Z,-1.10
2023-04-04T03:09:25.827Z,-1.20
2023-04-04T03:12:47.413Z,-1.20
2023-04-04T03:16:11.514Z,-1.20
2023-04-04T03:19:33.598Z,-1.30
2023-04-04T03:22:55.461Z,-1.30
2023-04-04T03:26:18.844Z,-1.30
2023-04-04T03:29:40.894Z,-1.30
2023-04-04T03:33:03.840Z,-1.30
2023-04-04T03:36:25.712Z,-1.30
2023-04-04T03:39:47.347Z,-1.40
2023-04-04T03:43:10.275Z,-1.40
2023-04-04T03:49:53.662Z,-1.30
2023-04-04T03:53:15.266Z,-1.40
2023-04-04T03:56:36.953Z,-1.40
2023-04-04T04:00:00.105Z,-1.40
2023-04-04T04:03:21.948Z,-1.50
2023-04-04T04:06:43.922Z,-1.50
2023-04-04T04:10:06.153Z,-1.50
2023-04-04T04:13:27.748Z,-1.60
2023-04-04T04:16:50.721Z,-1.60
2023-04-04T04:20:12.402Z,-1.60
2023-04-04T04:23:33.986Z,-1.60
2023-04-04T04:26:55.586Z,-1.70
2023-04-04T04:30:17.244Z,-1.70
2023-04-04T04:33:40.230Z,-1.70
2023-04-04T04:37:01.849Z,-1.70
2023-04-04T04:40:23.466Z,-1.70
2023-04-04T04:43:45.065Z,-1.70
2023-04-04T04:47:06.768Z,-1.70
2023-04-04T04:50:29.795Z,-1.70
2023-04-04T04:53:51.425Z,-1.70
2023-04-04T04:57:13.179Z,-1.60
2023-04-04T05:00:34.843Z,-1.60
2023-04-04T05:03:56.508Z,-1.50
2023-04-04T05:07:19.510Z,-1.50
2023-04-04T05:10:41.827Z,-1.50
2023-04-04T05:14:03.623Z,-1.40
2023-04-04T05:17:25.253Z,-1.40
2023-04-04T05:20:50.451Z,-1.30
2023-04-04T05:24:13.398Z,-1.20
2023-04-04T05:27:35.443Z,-1.20
2023-04-04T05:30:57.496Z,-1.10
2023-04-04T05:34:20.111Z,-1.00
2023-04-04T05:37:41.751Z,-0.90
2023-04-04T05:41:04.768Z,-0.80
2023-04-04T05:44:26.355Z,-0.70
2023-04-04T05:47:48.021Z,-0.50
2023-04-04T05:51:11.203Z,-0.30
2023-04-04T05:54:33.829Z,-0.10
2023-04-04T05:57:56.805Z,0.20
2023-04-04T06:01:19.015Z,0.60
2023-04-04T06:04:40.624Z,1.40
2023-04-04T06:08:02.256Z,3.00
2023-04-04T06:11:23.865Z,5.10
2023-04-04T06:14:46.835Z,6.60
2023-04-04T06:18:08.515Z,7.80
2023-04-04T06:21:30.139Z,8.80
2023-04-04T06:24:51.729Z,9.20
2023-04-04T06:28:13.322Z,9.70
2023-04-04T06:34:58.301Z,10.60
2023-04-04T06:38:19.896Z,11.00
2023-04-04T06:41:41.467Z,11.20
2023-04-04T06:45:03.216Z,11.40
2023-04-04T06:48:24.832Z,10.70
2023-04-04T06:51:48.138Z,10.40
2023-04-04T06:55:09.802Z,10.30
2023-04-04T06:58:31.407Z,10.40
2023-04-04T07:01:53.055Z,10.90
2023-04-04T07:05:14.829Z,10.70
2023-04-04T07:08:37.818Z,10.90
2023-04-04T07:11:59.428Z,11.10
2023-04-04T07:15:21.271Z,11.30
2023-04-04T07:18:42.948Z,10.50
2023-04-04T07:22:04.573Z,10.20
2023-04-04T07:25:27.962Z,10.10
2023-04-04T07:28:49.590Z,9.50
2023-04-04T07:32:11.222Z,10.30
2023-04-04T07:35:32.908Z,10.80
2023-04-04T07:38:54.685Z,10.80
2023-04-04T07:42:17.612Z,11.10
2023-04-04T07:45:39.242Z,10.90
2023-04-04T07:49:00.907Z,11.00
2023-04-04T07:52:22.490Z,11.40
2023-04-04T07:55:44.121Z,11.50
2023-04-04T07:59:07.140Z,12.00
2023-04-04T08:02:28.808Z,12.30
2023-04-04T08:05:50.503Z,11.80
2023-04-04T08:09:12.140Z,11.60
2023-04-04T08:12:33.790Z,12.00
2023-04-04T08:15:56.824Z,11.90
2023-04-04T08:19:18.476Z,11.50
2023-04-04T08:22:40.125Z,11.10
2023-04-04T08:26:01.743Z,11.60
2023-04-04T08:29:23.352Z,12.80
2023-04-04T08:32:46.418Z,13.20
2023-04-04T08:36:08.544Z,12.40
2023-04-04T08:39:30.166Z,11.90
2023-04-04T08:42:52.036Z,11.60
2023-04-04T08:46:14.270Z,12.60
2023-04-04T08:49:38.313Z,12.70
2023-04-04T08:53:00.881Z,12.80
2023-04-04T08:56:23.443Z,12.90
2023-04-04T08:59:47.903Z,12.20
2023-04-04T09:03:14.850Z,12.00
2023-04-04T09:06:38.916Z,11.80
2023-04-04T09:10:02.224Z,11.20
2023-04-04T09:13:23.995Z,9.90
2023-04-04T09:16:45.663Z,10.00
2023-04-04T09:20:22.382Z,10.90
2023-04-04T09:23:45.334Z,11.10
2023-04-04T09:27:07.520Z,11.10
2023-04-04T09:30:29.122Z,10.70
2023-04-04T09:33:50.790Z,10.80
2023-04-04T09:37:14.579Z,11.50
2023-04-04T09:40:41.028Z,11.30
2023-04-04T09:44:03.380Z,11.20
2023-04-04T09:50:51.248Z,11.00
2023-04-04T09:54:28.731Z,11.20
2023-04-04T09:57:53.418Z,10.80
2023-04-04T10:01:15.537Z,10.40
2023-04-04T10:04:38.064Z,10.10
2023-04-04T10:07:59.661Z,10.20
2023-04-04T10:11:28.799Z,10.70
2023-04-04T10:14:57.209Z,10.20
2023-04-04T10:18:18.944Z,9.80
2023-04-04T10:21:42.115Z,9.70
2023-04-04T10:25:04.242Z,9.90
2023-04-04T10:28:26.604Z,9.70
2023-04-04T10:31:50.784Z,9.40
2023-04-04T10:35:12.771Z,9.30
2023-04-04T10:38:40.625Z,9.10
2023-04-04T10:42:05.193Z,8.90
2023-04-04T10:45:27.140Z,8.50
2023-04-04T10:48:50.417Z,8.40
2023-04-04T10:52:13.596Z,8.10
2023-04-04T10:55:35.641Z,7.90
2023-04-04T10:59:08.769Z,7.60
2023-04-04T11:02:43.451Z,7.40
2023-04-04T11:06:14.013Z,7.10
2023-04-04T11:09:48.460Z,6.80
2023-04-04T11:13:13.306Z,6.70
2023-04-04T11:16:43.946Z,7.00
2023-04-04T11:20:07.612Z,7.30
2023-04-04T11:23:38.431Z,7.30
2023-04-04T11:27:00.038Z,7.20
2023-04-04T11:30:21.939Z,7.10
2023-04-04T11:33:54.017Z,7.10
2023-04-04T11:37:16.102Z,7.30
2023-04-04T11:40:39.753Z,7.10
2023-04-04T11:44:03.272Z,7.10
2023-04-04T11:47:25.156Z,7.10
2023-04-04T11:50:47.688Z,7.10
2023-04-04T11:54:13.241Z,7.10
2023-04-04T11:57:41.122Z,7.20
2023-04-04T12:01:02.957Z,7.40
2023-04-04T12:04:25.345Z,7.40
2023-04-04T12:07:47.400Z,7.50
2023-04-04T12:11:09.241Z,7.40
2023-04-04T12:14:32.437Z,7.50
2023-04-04T12:17:54.095Z,7.70
2023-04-04T12:21:15.778Z,7.40
2023-04-04T12:24:37.631Z,7.20
2023-04-04T12:27:59.687Z,7.10
2023-04-04T12:31:23.200Z,7.10
2023-04-04T12:34:49.969Z,7.30
2023-04-04T12:38:16.372Z,7.50
2023-04-04T12:41:47.210Z,7.40
2023-04-04T12:45:09.528Z,7.30
2023-04-04T12:48:33.173Z,7.20
2023-04-04T12:51:54.980Z,7.20
2023-04-04T12:55:20.164Z,7.30
2023-04-04T12:58:47.264Z,7.40
2023-04-04T13:02:11.277Z,7.40
2023-04-04T13:05:39.179Z,7.40
2023-04-04T13:09:01.095Z,7.50
2023-04-04T13:12:22.702Z,7.70
2023-04-04T13:15:47.959Z,7.80
2023-04-04T13:19:12.490Z,7.80
2023-04-04T13:22:41.376Z,7.80
2023-04-04T13:26:03.660Z,7.70
2023-04-04T13:29:26.971Z,7.70
2023-04-04T13:32:48.638Z,7.70
2023-04-04T13:36:10.290Z,7.80
2023-04-04T13:39:33.295Z,8.00
2023-04-04T13:42:55.054Z,7.80
2023-04-04T13:46:16.684Z,7.90
2023-04-04T13:49:38.317Z,7.90
2023-04-04T13:53:00.395Z,7.80
2023-04-04T13:56:23.590Z,7.90
2023-04-04T13:59:45.440Z,7.90
2023-04-04T14:03:07.282Z,8.00
2023-04-04T14:06:28.912Z,8.10
2023-04-04T14:09:50.514Z,8.10
2023-04-04T14:13:13.464Z,8.10
2023-04-04T14:16:35.152Z,8.00
2023-04-04T14:19:56.993Z,8.10
2023-04-04T14:23:18.574Z,8.10
2023-04-04T14:26:40.214Z,8.20
2023-04-04T14:30:03.381Z,8.10
2023-04-04T14:33:24.965Z,7.90
2023-04-04T14:36:46.570Z,8.10
2023-04-04T14:40:08.711Z,8.10
2023-04-04T14:43:30.353Z,8.20
2023-04-04T14:46:53.339Z,8.10
2023-04-04T14:50:15.096Z,8.10
2023-04-04T14:53:36.773Z,8.20
2023-04-04T14:56:58.377Z,8.20
2023-04-04T15:00:20.552Z,8.20
2023-04-04T15:03:43.632Z,8.20
2023-04-04T15:07:05.350Z,8.20
2023-04-04T15:10:27.015Z,8.20
2023-04-04T15:13:48.661Z,8.10
2023-04-04T15:17:10.363Z,8.10
2023-04-04T15:20:33.929Z,8.00
2023-04-04T15:23:55.626Z,8.10
2023-04-04T15:27:17.264Z,8.10
2023-04-04T15:30:39.282Z,8.00
2023-04-04T15:34:01.180Z,8.10
2023-04-04T15:37:26.280Z,8.10
2023-04-04T15:40:48.485Z,8.10
2023-04-04T15:44:10.187Z,8.00
2023-04-04T15:47:36.113Z,8.00
2023-04-04T15:50:59.593Z,8.00
2023-04-04T15:54:22.618Z,7.90
2023-04-04T15:57:44.874Z,7.90
2023-04-04T16:01:06.975Z,7.90
2023-04-04T16:04:28.658Z,8.00
2023-04-04T16:07:50.261Z,7.90
2023-04-04T16:11:13.217Z,7.80
2023-04-04T16:14:34.850Z,7.80
2023-04-04T16:17:56.485Z,7.70
2023-04-04T16:21:18.116Z,7.70
2023-04-04T16:24:39.731Z,7.80
2023-04-04T16:28:02.727Z,7.90
2023-04-04T16:31:24.370Z,7.90
2023-04-04T16:34:45.995Z,7.80
2023-04-04T16:38:07.990Z,7.60
2023-04-04T16:41:29.799Z,7.50
2023-04-04T16:44:53.216Z,7.40
2023-04-04T16:48:14.843Z,7.30
2023-04-04T16:51:36.653Z,7.20
2023-04-04T16:54:58.333Z,7.10
2023-04-04T16:58:19.987Z,7.00
2023-04-04T17:01:43.638Z,6.90
2023-04-04T17:08:42.332Z,6.70
2023-04-04T17:12:04.799Z,6.70
2023-04-04T17:15:30.298Z,6.60
2023-04-04T17:18:54.143Z,6.50
2023-04-04T17:22:16.883Z,6.40
2023-04-04T17:29:36.819Z,6.20
2023-04-04T17:32:58.709Z,6.10
2023-04-04T17:36:22.500Z,6.00
2023-04-04T17:39:45.554Z,5.90
2023-04-04T17:46:45.191Z,5.70
2023-04-04T17:50:07.806Z,5.50
2023-04-04T18:01:14.271Z,5.20
2023-04-04T18:04:36.304Z,5.10
2023-04-04T18:07:57.866Z,5.00
2023-04-04T18:14:52.588Z,4.90
2023-04-04T18:18:14.336Z,4.80
2023-04-04T18:21:35.898Z,4.70
2023-04-04T18:28:55.815Z,4.50
2023-04-04T18:32:19.435Z,4.50
2023-04-04T18:39:11.390Z,4.30
2023-04-04T18:42:33.387Z,4.20
2023-04-04T18:45:55.144Z,4.20
2023-04-04T18:52:54.762Z,4.20
2023-04-04T18:56:16.437Z,4.10
2023-04-04T18:59:38.063Z,4.00
2023-04-04T19:06:36.776Z,3.90
2023-04-04T19:10:02.834Z,3.70
2023-04-04T19:13:24.469Z,3.70
2023-04-04T19:16:46.077Z,3.60
2023-04-04T19:20:08.099Z,3.50
2023-04-04T19:23:29.724Z,3.40
2023-04-04T19:26:52.679Z,3.40
2023-04-04T19:30:29.202Z,3.30
2023-04-04T19:33:51.422Z,3.20
2023-04-04T19:37:13.606Z,3.20
2023-04-04T19:40:46.613Z,3.10
2023-04-04T19:44:14.453Z,3.10
2023-04-04T19:47:36.143Z,3.20
2023-04-04T19:50:58.093Z,3.10
2023-04-04T19:54:25.526Z,3.00
2023-04-04T19:57:47.757Z,3.00
2023-04-04T20:01:17.335Z,2.90
2023-04-04T20:04:40.056Z,2.80
2023-04-04T20:08:06.696Z,2.70
2023-04-04T20:11:32.508Z,2.60
2023-04-04T20:14:56.877Z,2.60
2023-04-04T20:18:22.864Z,2.60
2023-04-04T20:21:45.246Z,2.50
2023-04-04T20:25:10.423Z,2.50
2023-04-04T20:28:32.266Z,2.40
2023-04-04T20:31:54.507Z,2.40
2023-04-04T20:35:26.717Z,2.40
2023-04-04T20:38:48.485Z,2.40
2023-04-04T20:42:16.777Z,2.30
2023-04-04T20:45:42.632Z,2.30
2023-04-04T20:49:04.782Z,2.20
2023-04-04T20:52:27.734Z,2.20
2023-04-04T20:55:49.397Z,2.10
2023-04-04T20:59:25.915Z,2.10
2023-04-04T21:02:47.582Z,2.10
2023-04-04T21:06:10.697Z,2.20
2023-04-04T21:13:10.820Z,2.10
2023-04-04T21:16:32.441Z,2.00
2023-04-04T21:19:54.072Z,1.90
2023-04-04T21:23:23.030Z,1.80
2023-04-04T21:26:44.690Z,1.80
2023-04-04T21:30:08.368Z,1.70
2023-04-04T21:33:29.933Z,1.60
2023-04-04T21:36:52.764Z,1.60
2023-04-04T21:40:15.802Z,1.60
2023-04-04T21:43:37.599Z,1.60
2023-04-04T21:47:00.471Z,1.60
2023-04-04T21:50:22.022Z,1.50
2023-04-04T21:53:43.845Z,1.50
2023-04-04T21:57:05.431Z,1.50
2023-04-04T22:00:27.257Z,1.50
2023-04-04T22:03:50.324Z,1.50
2023-04-04T22:07:11.873Z,1.50
2023-04-04T22:10:33.444Z,1.40
2023-04-04T22:13:55.225Z,1.40
2023-04-04T22:17:16.755Z,1.40
2023-04-04T22:20:39.807Z,1.40
2023-04-04T22:24:01.580Z,1.40
2023-04-04T22:27:23.117Z,1.40
2023-04-04T22:30:44.653Z,1.40
2023-04-04T22:34:06.239Z,1.40
2023-04-04T22:37:29.145Z,1.30
2023-04-04T22:40:50.867Z,1.20
2023-04-04T22:44:12.436Z,1.10
2023-04-04T22:47:34.069Z,1.00
2023-04-04T22:50:55.815Z,0.90
2023-04-04T22:54:18.800Z,0.80
2023-04-04T22:57:40.373Z,0.70
2023-04-04T23:01:02.009Z,0.70
2023-04-04T23:04:23.633Z,0.60
2023-04-04T23:07:45.368Z,0.60
2023-04-04T23:11:08.262Z,0.50
2023-04-04T23:14:29.938Z,0.50
2023-04-04T23:17:51.519Z,0.50
2023-04-04T23:21:13.105Z,0.50
2023-04-04T23:24:34.661Z,0.60
2023-04-04T23:27:57.595Z,0.60
2023-04-04T23:31:19.535Z,0.70
2023-04-04T23:34:41.098Z,0.80
2023-04-04T23:38:02.656Z,0.80
2023-04-04T23:41:24.280Z,0.80
2023-04-04T23:44:47.181Z,0.80
2023-04-04T23:48:08.803Z,0.80
2023-04-04T23:51:30.569Z,0.80
2023-04-04T23:54:52.125Z,0.80
2023-04-04T23:58:13.679Z,0.70
